createdAt,value
2023-05-06T00:02:04.383Z,0.00
2023-05-06T00:04:31.295Z,0.00
2023-05-06T00:06:58.079Z,0.00
2023-05-06T00:09:24.781Z,0.00
2023-05-06T00:11:51.606Z,0.00
2023-05-06T00:14:18.315Z,0.00
2023-05-06T00:16:45.142Z,0.00
2023-05-06T00:19:12.556Z,0.00
2023-05-06T00:21:39.347Z,0.00
2023-05-06T00:24:06.414Z,0.00
2023-05-06T00:26:33.203Z,0.00
2023-05-06T00:28:59.872Z,0.00
2023-05-06T00:31:26.526Z,0.00
2023-05-06T00:33:53.174Z,0.00
2023-05-06T00:36:19.856Z,0.00
2023-05-06T00:38:46.534Z,0.00
2023-05-06T00:41:13.197Z,0.00
2023-05-06T00:43:41.016Z,0.00
2023-05-06T00:46:10.814Z,0.00
2023-05-06T00:48:38.453Z,0.00
2023-05-06T00:51:06.258Z,0.00
2023-05-06T00:53:33.348Z,0.00
2023-05-06T00:56:00.476Z,0.00
2023-05-06T00:58:27.181Z,0.40
2023-05-06T01:00:55.239Z,0.00
2023-05-06T01:03:22.843Z,0.00
2023-05-06T01:06:35.726Z,0.00
2023-05-06T01:09:22.520Z,0.10
2023-05-06T01:12:07.461Z,0.00
2023-05-06T01:14:49.548Z,0.00
2023-05-06T01:17:18.909Z,0.00
2023-05-06T01:19:50.898Z,0.00
2023-05-06T01:22:19.273Z,0.00
2023-05-06T01:24:46.878Z,0.00
2023-05-06T01:27:16.649Z,0.00
2023-05-06T01:29:46.812Z,0.00
2023-05-06T01:32:19.696Z,0.00
2023-05-06T01:35:14.920Z,0.00
2023-05-06T01:38:04.578Z,0.00
2023-05-06T01:40:33.797Z,0.00
2023-05-06T01:43:05.798Z,0.20
2023-05-06T01:45:36.284Z,0.00
2023-05-06T01:48:05.261Z,0.00
2023-05-06T01:50:32.530Z,0.00
2023-05-06T01:53:03.331Z,0.00
2023-05-06T01:55:30.069Z,0.00
2023-05-06T01:57:56.836Z,0.00
2023-05-06T08:08:27.152Z,0.00
2023-05-06T08:10:58.883Z,0.00
2023-05-06T08:13:26.297Z,0.22
2023-05-06T08:15:53.181Z,0.00
2023-05-06T08:18:22.679Z,0.00
2023-05-06T08:20:51.084Z,0.00
2023-05-06T08:23:17.880Z,0.00
2023-05-06T08:25:44.545Z,0.00
2023-05-06T08:28:11.247Z,0.00
2023-05-06T08:30:38.094Z,0.20
2023-05-06T08:33:04.870Z,0.00
2023-05-06T08:35:31.600Z,0.00
2023-05-06T08:37:58.381Z,0.00
2023-05-06T08:40:26.927Z,0.00
2023-05-06T08:42:55.322Z,0.00
2023-05-06T08:45:23.628Z,0.00
2023-05-06T08:47:50.540Z,1.77
2023-05-06T08:50:17.607Z,0.10
2023-05-06T08:52:45.056Z,0.00
2023-05-06T08:55:12.287Z,0.00
2023-05-06T08:57:40.496Z,0.00
2023-05-06T09:00:11.143Z,0.00
2023-05-06T09:02:41.286Z,0.00
2023-05-06T09:05:11.368Z,4.00
2023-05-06T09:07:38.239Z,4.25
2023-05-06T09:10:12.972Z,4.47
2023-05-06T09:15:07.445Z,5.05
2023-05-06T09:17:34.350Z,4.10
2023-05-06T09:20:01.080Z,3.40
2023-05-06T09:22:30.576Z,6.35
2023-05-06T09:24:58.465Z,2.85
2023-05-06T09:27:31.941Z,4.00
2023-05-06T09:30:07.296Z,4.75
2023-05-06T09:32:38.168Z,4.22
2023-05-06T09:35:08.552Z,2.95
2023-05-06T09:37:36.070Z,1.85
2023-05-06T09:40:02.844Z,2.05
2023-05-06T09:42:30.525Z,2.58
2023-05-06T09:45:02.242Z,2.03
2023-05-06T09:47:34.968Z,2.65
2023-05-06T09:50:03.603Z,2.95
2023-05-06T09:52:31.593Z,2.03
2023-05-06T09:54:59.337Z,2.40
2023-05-06T09:57:26.668Z,2.75
2023-05-06T09:59:55.532Z,3.55
2023-05-06T10:02:23.972Z,4.03
2023-05-06T10:04:52.382Z,2.05
2023-05-06T10:07:25.672Z,4.25
2023-05-06T10:09:54.184Z,2.28
2023-05-06T10:12:21.042Z,2.40
2023-05-06T10:14:48.005Z,1.70
2023-05-06T10:17:16.088Z,2.25
2023-05-06T10:19:46.644Z,3.67
2023-05-06T10:22:26.230Z,2.25
2023-05-06T10:25:03.520Z,2.75
2023-05-06T10:27:35.244Z,1.67
2023-05-06T10:30:02.020Z,1.80
2023-05-06T10:32:32.985Z,4.03
2023-05-06T10:35:12.278Z,2.35
2023-05-06T10:37:40.667Z,2.60
2023-05-06T10:40:10.108Z,4.35
2023-05-06T10:42:36.810Z,2.13
2023-05-06T10:45:05.521Z,3.28
2023-05-06T10:47:58.622Z,2.00
2023-05-06T10:50:27.751Z,4.57
2023-05-06T10:52:58.962Z,1.63
2023-05-06T10:55:29.174Z,1.48
2023-05-06T10:58:16.583Z,3.45
2023-05-06T11:00:53.887Z,1.80
2023-05-06T11:03:24.063Z,2.88
2023-05-06T11:05:52.301Z,1.52
2023-05-06T11:08:26.574Z,1.80
2023-05-06T11:10:54.286Z,3.53
2023-05-06T11:13:27.405Z,2.45
2023-05-06T11:15:58.648Z,2.85
2023-05-06T11:18:25.789Z,3.42
2023-05-06T11:21:03.157Z,3.60
2023-05-06T11:23:42.811Z,2.38
2023-05-06T11:26:11.071Z,1.92
2023-05-06T11:28:39.697Z,1.13
2023-05-06T11:31:08.210Z,2.75
2023-05-06T11:33:37.126Z,2.15
2023-05-06T11:36:05.233Z,1.30
2023-05-06T11:38:47.877Z,2.17
2023-05-06T11:41:17.206Z,2.90
2023-05-06T11:43:49.954Z,4.68
2023-05-06T11:46:23.103Z,4.82
2023-05-06T11:48:50.599Z,2.72
2023-05-06T11:51:22.844Z,2.40
2023-05-06T11:53:49.606Z,1.88
2023-05-06T11:56:16.459Z,3.40
2023-05-06T11:58:43.977Z,7.90
2023-05-06T12:01:10.840Z,3.00
2023-05-06T12:03:37.855Z,8.15
2023-05-06T12:06:04.973Z,4.80
2023-05-06T12:08:36.411Z,4.07
2023-05-06T12:11:08.590Z,3.50
2023-05-06T12:13:40.127Z,3.28
2023-05-06T12:16:08.479Z,2.10
2023-05-06T12:18:35.856Z,2.45
2023-05-06T12:21:03.012Z,4.78
2023-05-06T12:23:29.739Z,2.35
2023-05-06T12:26:05.753Z,1.20
2023-05-06T12:28:35.501Z,4.50
2023-05-06T12:31:28.587Z,3.50
2023-05-06T12:33:56.862Z,3.58
2023-05-06T12:36:24.277Z,3.45
2023-05-06T12:39:00.498Z,33.95
2023-05-06T12:41:45.484Z,0.73
2023-05-06T12:44:38.638Z,0.10
2023-05-06T12:47:21.357Z,0.00
2023-05-06T12:49:55.078Z,0.25
2023-05-06T12:52:24.479Z,0.00
2023-05-06T12:54:52.838Z,0.30
2023-05-06T12:57:19.925Z,0.10
2023-05-06T12:59:47.064Z,0.00
2023-05-06T13:02:14.948Z,0.00
2023-05-06T13:04:42.336Z,0.00
2023-05-06T13:07:09.208Z,0.00
2023-05-06T13:09:36.023Z,0.00
2023-05-06T13:12:04.573Z,0.00
2023-05-06T13:14:31.526Z,0.00
2023-05-06T13:17:01.010Z,0.00
2023-05-06T13:19:32.905Z,0.00
2023-05-06T13:22:04.055Z,0.00
2023-05-06T13:24:32.127Z,0.00
2023-05-06T13:27:02.067Z,0.00
2023-05-06T13:29:29.690Z,0.00
2023-05-06T13:31:56.657Z,0.00
2023-05-06T13:34:23.370Z,0.00
2023-05-06T13:36:51.005Z,0.00
2023-05-06T13:39:17.744Z,0.00
2023-05-06T13:41:50.029Z,0.00
2023-05-06T13:44:21.439Z,0.00
2023-05-06T13:46:48.816Z,0.00
2023-05-06T13:49:15.765Z,0.00
2023-05-06T13:51:42.476Z,0.00
2023-05-06T13:54:09.194Z,0.00
2023-05-06T13:56:36.192Z,0.00
2023-05-06T13:59:02.998Z,0.00
2023-05-06T14:01:29.929Z,0.00
2023-05-06T14:03:56.691Z,0.00
2023-05-06T14:06:23.421Z,0.00
2023-05-06T14:08:50.103Z,0.00
2023-05-06T14:11:16.822Z,0.00
2023-05-06T14:13:43.508Z,0.10
2023-05-06T14:16:10.238Z,0.00
2023-05-06T14:18:36.967Z,0.00
2023-05-06T14:21:03.792Z,0.00
2023-05-06T14:23:30.591Z,0.00
2023-05-06T14:25:57.316Z,0.00
2023-05-06T14:28:23.984Z,0.00
2023-05-06T14:30:51.433Z,0.00
2023-05-06T14:33:18.216Z,0.00
2023-05-06T14:35:46.072Z,0.00
2023-05-06T14:38:12.880Z,0.00
2023-05-06T14:40:39.604Z,0.00
2023-05-06T14:43:09.450Z,0.00
2023-05-06T14:45:36.180Z,0.05
2023-05-06T14:48:03.643Z,0.70
2023-05-06T14:50:31.151Z,3.88
2023-05-06T14:52:58.116Z,1.20
2023-05-06T14:55:25.029Z,2.78
2023-05-06T14:57:52.015Z,1.52
2023-05-06T15:00:20.285Z,3.15
2023-05-06T15:02:47.201Z,3.03
2023-05-06T15:05:14.175Z,2.80
2023-05-06T15:07:41.581Z,2.78
2023-05-06T15:10:08.776Z,2.88
2023-05-06T15:12:36.409Z,3.88
2023-05-06T15:15:04.937Z,3.17
2023-05-06T15:17:31.854Z,4.55
2023-05-06T15:19:58.636Z,2.80
2023-05-06T15:22:25.420Z,2.85
2023-05-06T15:24:52.168Z,4.40
2023-05-06T15:27:18.858Z,7.53
2023-05-06T15:29:45.659Z,5.03
2023-05-06T15:32:12.452Z,4.07
2023-05-06T15:34:39.177Z,4.85
2023-05-06T15:37:06.236Z,1.92
2023-05-06T15:39:38.713Z,11.00
2023-05-06T15:42:06.118Z,4.40
2023-05-06T15:44:33.912Z,3.45
2023-05-06T15:47:00.860Z,2.88
2023-05-06T15:51:58.956Z,3.30
2023-05-06T15:54:27.408Z,3.03
2023-05-06T15:56:54.117Z,1.83
2023-05-06T15:59:20.964Z,1.38
2023-05-06T16:02:22.604Z,3.38
2023-05-06T16:04:34.558Z,2.47
2023-05-06T16:07:02.344Z,3.10
2023-05-06T16:09:29.020Z,4.72
2023-05-06T16:11:55.770Z,3.25
2023-05-06T16:14:22.677Z,5.28
2023-05-06T16:16:49.379Z,6.18
2023-05-06T16:19:16.065Z,7.70
2023-05-06T16:21:42.768Z,5.13
2023-05-06T16:24:09.406Z,5.78
2023-05-06T16:26:36.494Z,5.15
2023-05-06T16:29:03.289Z,3.72
2023-05-06T16:31:30.330Z,2.50
2023-05-06T16:33:57.027Z,3.22
2023-05-06T16:36:23.689Z,2.20
2023-05-06T16:38:50.393Z,1.92
2023-05-06T16:41:17.113Z,1.40
2023-05-06T16:43:43.828Z,2.88
2023-05-06T16:46:10.522Z,2.55
2023-05-06T16:48:37.245Z,3.30
2023-05-06T16:51:04.258Z,3.25
2023-05-06T16:53:30.926Z,1.60
2023-05-06T16:55:57.603Z,3.40
2023-05-06T16:58:24.372Z,1.63
2023-05-06T17:00:54.022Z,1.88
2023-05-06T17:03:20.732Z,2.22
2023-05-06T17:05:47.592Z,4.07
2023-05-06T17:08:16.099Z,3.30
2023-05-06T17:10:43.512Z,1.92
2023-05-06T17:13:10.336Z,2.33
2023-05-06T17:15:37.205Z,4.47
2023-05-06T17:18:04.061Z,1.92
2023-05-06T17:20:31.270Z,5.28
2023-05-06T17:22:58.194Z,2.75
2023-05-06T17:25:25.028Z,8.88
2023-05-06T17:27:51.850Z,2.22
2023-05-06T17:30:18.601Z,5.25
2023-05-06T17:32:45.270Z,2.50
2023-05-06T17:35:12.386Z,2.63
2023-05-06T17:37:39.606Z,2.95
2023-05-06T17:40:07.876Z,2.35
2023-05-06T17:42:34.799Z,2.30
2023-05-06T17:45:01.696Z,1.52
2023-05-06T17:47:30.001Z,1.92
2023-05-06T17:49:57.090Z,2.28
2023-05-06T17:52:26.945Z,3.60
2023-05-06T17:55:10.592Z,3.92
2023-05-06T17:57:40.842Z,2.55
2023-05-06T18:00:08.810Z,1.98
2023-05-06T18:02:42.964Z,2.17
2023-05-06T18:05:10.252Z,2.58
2023-05-06T18:07:37.135Z,2.72
2023-05-06T18:10:04.131Z,6.68
2023-05-06T18:12:31.145Z,3.38
2023-05-06T18:14:58.262Z,2.22
2023-05-06T18:17:25.679Z,2.78
2023-05-06T18:19:52.757Z,5.50
2023-05-06T18:22:19.476Z,3.03
2023-05-06T18:24:47.342Z,4.93
2023-05-06T18:27:14.074Z,2.75
2023-05-06T18:29:41.312Z,3.17
2023-05-06T18:32:08.349Z,4.70
2023-05-06T18:34:35.331Z,2.40
2023-05-06T18:37:02.119Z,3.03
2023-05-06T18:39:28.801Z,5.88
2023-05-06T18:41:55.521Z,3.22
2023-05-06T18:44:22.246Z,2.50
2023-05-06T18:46:48.925Z,3.35
2023-05-06T18:49:15.682Z,1.73
2023-05-06T18:51:42.423Z,1.38
2023-05-06T18:54:09.179Z,1.88
2023-05-06T18:56:36.934Z,3.55
2023-05-06T18:59:03.718Z,1.90
2023-05-06T19:01:30.452Z,3.08
2023-05-06T19:03:57.485Z,2.90
2023-05-06T19:06:24.180Z,1.73
2023-05-06T19:08:50.898Z,2.75
2023-05-06T19:11:21.265Z,4.43
2023-05-06T19:13:50.170Z,2.17
2023-05-06T19:16:16.947Z,5.53
2023-05-06T19:18:43.786Z,2.72
2023-05-06T19:21:12.221Z,3.47
2023-05-06T19:23:39.226Z,3.78
2023-05-06T19:26:06.961Z,4.55
2023-05-06T19:28:34.372Z,3.53
2023-05-06T19:31:01.728Z,3.03
2023-05-06T19:33:28.744Z,2.65
2023-05-06T19:35:55.511Z,3.88
2023-05-06T19:38:22.273Z,6.45
2023-05-06T19:40:48.950Z,2.35
2023-05-06T19:43:15.661Z,4.05
2023-05-06T19:45:42.493Z,3.72
2023-05-06T19:48:09.287Z,4.70
2023-05-06T19:50:36.708Z,3.65
2023-05-06T19:53:03.581Z,7.10
2023-05-06T19:55:30.853Z,5.10
2023-05-06T19:57:58.005Z,5.25
2023-05-06T20:00:27.930Z,5.43
2023-05-06T20:02:57.414Z,6.40
2023-05-06T20:05:29.468Z,3.42
2023-05-06T20:07:56.492Z,4.82
2023-05-06T20:10:23.409Z,4.38
2023-05-06T20:12:50.571Z,4.40
2023-05-06T20:15:17.327Z,3.92
2023-05-06T20:17:44.115Z,5.05
2023-05-06T20:20:11.477Z,5.18
2023-05-06T20:22:41.222Z,7.07
2023-05-06T20:25:15.886Z,3.20
2023-05-06T20:27:46.346Z,5.43
2023-05-06T20:30:13.301Z,5.75
2023-05-06T20:32:41.100Z,4.45
2023-05-06T20:35:08.936Z,6.80
2023-05-06T20:37:36.404Z,11.40
2023-05-06T20:40:06.650Z,7.78
2023-05-06T20:42:36.518Z,9.00
2023-05-06T20:45:05.462Z,11.57
2023-05-06T20:47:32.156Z,11.52
2023-05-06T20:49:58.855Z,11.80
2023-05-06T20:52:25.755Z,11.52
2023-05-06T20:54:52.465Z,11.52
2023-05-06T20:57:21.130Z,10.93
2023-05-06T20:59:49.579Z,13.10
2023-05-06T21:02:16.323Z,12.75
2023-05-06T21:04:43.073Z,10.77
2023-05-06T21:07:09.744Z,6.75
2023-05-06T21:09:38.072Z,7.70
2023-05-06T21:12:05.143Z,12.07
2023-05-06T21:14:31.866Z,11.35
2023-05-06T21:16:58.584Z,9.98
2023-05-06T21:19:25.284Z,6.90
2023-05-06T21:21:51.928Z,5.88
2023-05-06T21:24:18.697Z,6.40
2023-05-06T21:26:45.511Z,6.15
2023-05-06T21:29:12.249Z,6.80
2023-05-06T21:31:39.039Z,8.15
2023-05-06T21:34:07.892Z,13.00
2023-05-06T21:36:37.660Z,8.90
2023-05-06T21:39:11.944Z,10.75
2023-05-06T21:41:40.011Z,7.40
2023-05-06T21:44:08.365Z,5.70
2023-05-06T21:46:36.641Z,7.47
2023-05-06T21:49:04.050Z,8.13
2023-05-06T21:51:33.619Z,7.55
2023-05-06T21:54:01.065Z,8.77
2023-05-06T21:56:28.155Z,5.80
2023-05-06T21:58:58.425Z,7.35
2023-05-06T22:01:29.246Z,7.53
2023-05-06T22:03:56.509Z,6.88
2023-05-06T22:06:23.333Z,7.30
2023-05-06T22:08:50.065Z,7.28
2023-05-06T22:11:17.288Z,7.20
2023-05-06T22:13:44.067Z,6.70
2023-05-06T22:16:10.900Z,6.22
2023-05-06T22:18:41.209Z,5.18
2023-05-06T22:21:08.737Z,6.13
2023-05-06T22:23:35.715Z,7.32
2023-05-06T22:26:02.791Z,8.07
2023-05-06T22:28:29.499Z,9.80
2023-05-06T22:30:56.403Z,6.97
2023-05-06T22:33:23.220Z,9.30
2023-05-06T22:35:50.019Z,7.10
2023-05-06T22:38:16.724Z,6.78
2023-05-06T22:40:43.439Z,6.93
2023-05-06T22:43:10.108Z,6.70
2023-05-06T22:45:36.891Z,8.05
2023-05-06T22:48:04.819Z,8.13
2023-05-06T22:50:31.776Z,8.13
2023-05-06T22:52:59.967Z,6.93
2023-05-06T22:55:28.133Z,7.18
2023-05-06T22:57:54.926Z,8.23
2023-05-06T23:00:22.731Z,6.18
2023-05-06T23:02:49.560Z,9.15
2023-05-06T23:05:16.351Z,8.52
2023-05-06T23:07:43.072Z,7.63
2023-05-06T23:10:10.035Z,9.15
2023-05-06T23:12:36.797Z,5.43
2023-05-06T23:15:03.925Z,6.95
2023-05-06T23:17:30.863Z,7.90
2023-05-06T23:19:58.994Z,8.73
2023-05-06T23:22:26.657Z,5.90
2023-05-06T23:24:53.716Z,7.03
2023-05-06T23:27:20.555Z,6.82
2023-05-06T23:29:47.277Z,5.95
2023-05-06T23:32:14.038Z,7.38
2023-05-06T23:34:40.764Z,5.97
2023-05-06T23:37:07.435Z,7.10
2023-05-06T23:39:34.155Z,7.88
2023-05-06T23:42:02.153Z,9.07
2023-05-06T23:44:28.922Z,9.38
2023-05-06T23:46:55.830Z,5.72
2023-05-06T23:49:22.602Z,6.88
2023-05-06T23:51:49.346Z,6.35
2023-05-06T23:54:16.056Z,7.03
2023-05-06T23:56:42.796Z,8.20
2023-05-06T23:59:09.473Z,5.60
